sensor_id;sensor_type;location;lat;lon;timestamp;P1;durP1;ratioP1;P2;durP2;ratioP2
1382;SDS011;685;47.196;11.880;2022-12-18T00:01:40;1.50;;;1.40;;
1382;SDS011;685;47.196;11.880;2022-12-18T00:04:07;2.22;;;1.73;;
1382;SDS011;685;47.196;11.880;2022-12-18T00:06:41;2.22;;;1.85;;
1382;SDS011;685;47.196;11.880;2022-12-18T00:09:08;2.92;;;1.85;;
1382;SDS011;685;47.196;11.880;2022-12-18T00:11:35;1.63;;;1.50;;
1382;SDS011;685;47.196;11.880;2022-12-18T00:14:03;2.58;;;2.08;;
1382;SDS011;685;47.196;11.880;2022-12-18T00:16:30;2.33;;;1.85;;
1382;SDS011;685;47.196;11.880;2022-12-18T00:19:00;2.10;;;1.50;;
1382;SDS011;685;47.196;11.880;2022-12-18T00:21:28;3.35;;;1.95;;
1382;SDS011;685;47.196;11.880;2022-12-18T00:23:55;2.78;;;2.10;;
1382;SDS011;685;47.196;11.880;2022-12-18T00:26:23;3.55;;;3.00;;
1382;SDS011;685;47.196;11.880;2022-12-18T00:28:51;2.15;;;1.95;;
1382;SDS011;685;47.196;11.880;2022-12-18T00:31:22;2.30;;;1.52;;
1382;SDS011;685;47.196;11.880;2022-12-18T00:33:50;2.72;;;1.88;;
1382;SDS011;685;47.196;11.880;2022-12-18T00:36:20;2.60;;;2.15;;
1382;SDS011;685;47.196;11.880;2022-12-18T00:38:48;2.20;;;1.90;;
1382;SDS011;685;47.196;11.880;2022-12-18T00:41:16;3.78;;;2.15;;
1382;SDS011;685;47.196;11.880;2022-12-18T00:44:04;3.10;;;1.70;;
1382;SDS011;685;47.196;11.880;2022-12-18T00:46:33;3.22;;;2.25;;
1382;SDS011;685;47.196;11.880;2022-12-18T00:49:00;2.28;;;1.85;;
1382;SDS011;685;47.196;11.880;2022-12-18T00:51:27;3.45;;;1.55;;
1382;SDS011;685;47.196;11.880;2022-12-18T00:53:54;4.70;;;1.98;;
1382;SDS011;685;47.196;11.880;2022-12-18T00:56:21;2.25;;;2.05;;
1382;SDS011;685;47.196;11.880;2022-12-18T00:58:48;2.30;;;1.97;;
1382;SDS011;685;47.196;11.880;2022-12-18T01:01:16;2.03;;;1.75;;
1382;SDS011;685;47.196;11.880;2022-12-18T01:03:44;3.70;;;2.10;;
1382;SDS011;685;47.196;11.880;2022-12-18T01:06:12;2.28;;;1.63;;
1382;SDS011;685;47.196;11.880;2022-12-18T01:08:41;2.22;;;1.92;;
1382;SDS011;685;47.196;11.880;2022-12-18T01:11:08;2.13;;;1.73;;
1382;SDS011;685;47.196;11.880;2022-12-18T01:13:37;3.67;;;1.70;;
1382;SDS011;685;47.196;11.880;2022-12-18T01:16:04;2.25;;;1.73;;
1382;SDS011;685;47.196;11.880;2022-12-18T01:18:31;2.90;;;2.03;;
1382;SDS011;685;47.196;11.880;2022-12-18T01:21:00;1.58;;;1.20;;
1382;SDS011;685;47.196;11.880;2022-12-18T01:23:26;1.08;;;0.90;;
1382;SDS011;685;47.196;11.880;2022-12-18T01:25:53;3.17;;;1.05;;
1382;SDS011;685;47.196;11.880;2022-12-18T01:28:20;1.85;;;1.38;;
1382;SDS011;685;47.196;11.880;2022-12-18T01:30:47;2.15;;;1.30;;
1382;SDS011;685;47.196;11.880;2022-12-18T01:33:14;1.85;;;1.75;;
1382;SDS011;685;47.196;11.880;2022-12-18T01:35:41;1.90;;;1.52;;
1382;SDS011;685;47.196;11.880;2022-12-18T01:38:09;2.10;;;1.50;;
1382;SDS011;685;47.196;11.880;2022-12-18T01:40:36;1.75;;;1.40;;
1382;SDS011;685;47.196;11.880;2022-12-18T01:43:03;1.55;;;1.17;;
1382;SDS011;685;47.196;11.880;2022-12-18T01:45:30;2.45;;;1.13;;
1382;SDS011;685;47.196;11.880;2022-12-18T01:47:58;1.50;;;1.23;;
1382;SDS011;685;47.196;11.880;2022-12-18T01:50:29;1.95;;;1.20;;
1382;SDS011;685;47.196;11.880;2022-12-18T01:53:00;1.95;;;1.75;;
1382;SDS011;685;47.196;11.880;2022-12-18T01:55:35;2.00;;;1.00;;
1382;SDS011;685;47.196;11.880;2022-12-18T01:58:07;2.00;;;1.10;;
1382;SDS011;685;47.196;11.880;2022-12-18T02:00:34;1.45;;;1.20;;
1382;SDS011;685;47.196;11.880;2022-12-18T02:03:01;1.98;;;1.20;;
1382;SDS011;685;47.196;11.880;2022-12-18T02:05:31;1.40;;;0.90;;
1382;SDS011;685;47.196;11.880;2022-12-18T02:08:08;1.40;;;1.20;;
1382;SDS011;685;47.196;11.880;2022-12-18T02:10:43;1.20;;;0.93;;
1382;SDS011;685;47.196;11.880;2022-12-18T02:13:18;1.52;;;1.40;;
1382;SDS011;685;47.196;11.880;2022-12-18T02:15:50;2.08;;;1.20;;
1382;SDS011;685;47.196;11.880;2022-12-18T02:18:25;2.10;;;1.60;;
1382;SDS011;685;47.196;11.880;2022-12-18T02:20:58;3.53;;;2.00;;
1382;SDS011;685;47.196;11.880;2022-12-18T02:23:38;1.73;;;1.33;;
1382;SDS011;685;47.196;11.880;2022-12-18T02:26:19;3.45;;;1.52;;
1382;SDS011;685;47.196;11.880;2022-12-18T02:28:49;2.05;;;1.20;;
1382;SDS011;685;47.196;11.880;2022-12-18T02:31:22;1.27;;;1.05;;
1382;SDS011;685;47.196;11.880;2022-12-18T02:33:52;1.48;;;1.38;;
1382;SDS011;685;47.196;11.880;2022-12-18T02:36:22;1.30;;;1.10;;
1382;SDS011;685;47.196;11.880;2022-12-18T02:38:51;2.53;;;1.45;;
1382;SDS011;685;47.196;11.880;2022-12-18T02:41:21;3.00;;;1.00;;
1382;SDS011;685;47.196;11.880;2022-12-18T02:43:52;1.48;;;1.23;;
1382;SDS011;685;47.196;11.880;2022-12-18T02:46:24;1.48;;;0.93;;
1382;SDS011;685;47.196;11.880;2022-12-18T02:48:55;1.63;;;1.10;;
1382;SDS011;685;47.196;11.880;2022-12-18T02:51:29;1.77;;;1.60;;
1382;SDS011;685;47.196;11.880;2022-12-18T02:54:00;0.80;;;0.60;;
1382;SDS011;685;47.196;11.880;2022-12-18T02:56:37;2.00;;;1.60;;
1382;SDS011;685;47.196;11.880;2022-12-18T02:59:12;1.30;;;1.20;;
1382;SDS011;685;47.196;11.880;2022-12-18T03:01:46;4.30;;;1.05;;
1382;SDS011;685;47.196;11.880;2022-12-18T03:04:19;1.77;;;1.02;;
1382;SDS011;685;47.196;11.880;2022-12-18T03:06:53;1.75;;;1.10;;
1382;SDS011;685;47.196;11.880;2022-12-18T03:09:24;1.70;;;1.58;;
1382;SDS011;685;47.196;11.880;2022-12-18T03:12:00;1.45;;;1.35;;
1382;SDS011;685;47.196;11.880;2022-12-18T03:14:52;3.05;;;1.20;;
1382;SDS011;685;47.196;11.880;2022-12-18T03:17:23;1.30;;;1.20;;
1382;SDS011;685;47.196;11.880;2022-12-18T03:19:52;1.55;;;1.00;;
1382;SDS011;685;47.196;11.880;2022-12-18T03:22:23;2.95;;;0.88;;
1382;SDS011;685;47.196;11.880;2022-12-18T03:24:53;2.58;;;0.95;;
1382;SDS011;685;47.196;11.880;2022-12-18T03:27:24;1.77;;;1.30;;
1382;SDS011;685;47.196;11.880;2022-12-18T03:29:54;1.00;;;0.75;;
1382;SDS011;685;47.196;11.880;2022-12-18T03:32:32;1.75;;;1.02;;
1382;SDS011;685;47.196;11.880;2022-12-18T03:35:05;1.63;;;1.05;;
1382;SDS011;685;47.196;11.880;2022-12-18T03:37:34;1.10;;;0.80;;
1382;SDS011;685;47.196;11.880;2022-12-18T03:40:01;1.00;;;0.80;;
1382;SDS011;685;47.196;11.880;2022-12-18T03:42:32;1.17;;;0.98;;
1382;SDS011;685;47.196;11.880;2022-12-18T03:45:07;1.27;;;1.08;;
1382;SDS011;685;47.196;11.880;2022-12-18T03:47:38;1.27;;;1.00;;
1382;SDS011;685;47.196;11.880;2022-12-18T03:50:11;2.05;;;1.20;;
1382;SDS011;685;47.196;11.880;2022-12-18T03:52:44;1.55;;;1.08;;
1382;SDS011;685;47.196;11.880;2022-12-18T03:55:16;1.95;;;1.15;;
1382;SDS011;685;47.196;11.880;2022-12-18T03:57:45;1.13;;;1.02;;
1382;SDS011;685;47.196;11.880;2022-12-18T04:00:14;2.55;;;0.82;;
1382;SDS011;685;47.196;11.880;2022-12-18T04:02:44;2.00;;;1.30;;
1382;SDS011;685;47.196;11.880;2022-12-18T04:05:14;1.10;;;0.93;;
1382;SDS011;685;47.196;11.880;2022-12-18T04:07:43;2.85;;;1.45;;
1382;SDS011;685;47.196;11.880;2022-12-18T04:10:13;1.77;;;1.30;;
1382;SDS011;685;47.196;11.880;2022-12-18T04:12:41;1.10;;;1.00;;
1382;SDS011;685;47.196;11.880;2022-12-18T04:15:10;1.42;;;1.05;;
1382;SDS011;685;47.196;11.880;2022-12-18T04:17:38;1.80;;;1.10;;
1382;SDS011;685;47.196;11.880;2022-12-18T04:20:05;1.10;;;1.00;;
1382;SDS011;685;47.196;11.880;2022-12-18T04:22:33;1.45;;;1.30;;
1382;SDS011;685;47.196;11.880;2022-12-18T04:25:00;1.75;;;1.65;;
1382;SDS011;685;47.196;11.880;2022-12-18T04:27:27;1.50;;;1.10;;
1382;SDS011;685;47.196;11.880;2022-12-18T04:29:54;1.50;;;1.40;;
1382;SDS011;685;47.196;11.880;2022-12-18T04:32:22;1.98;;;1.30;;
1382;SDS011;685;47.196;11.880;2022-12-18T04:34:49;1.73;;;1.10;;
1382;SDS011;685;47.196;11.880;2022-12-18T04:37:16;2.55;;;1.45;;
1382;SDS011;685;47.196;11.880;2022-12-18T04:39:43;2.03;;;1.30;;
1382;SDS011;685;47.196;11.880;2022-12-18T04:42:10;2.88;;;2.67;;
1382;SDS011;685;47.196;11.880;2022-12-18T04:44:36;1.55;;;1.42;;
1382;SDS011;685;47.196;11.880;2022-12-18T04:47:03;1.67;;;1.45;;
1382;SDS011;685;47.196;11.880;2022-12-18T04:49:31;1.75;;;1.50;;
1382;SDS011;685;47.196;11.880;2022-12-18T04:51:58;2.45;;;1.25;;
1382;SDS011;685;47.196;11.880;2022-12-18T04:54:25;1.50;;;1.27;;
1382;SDS011;685;47.196;11.880;2022-12-18T04:56:52;1.60;;;1.40;;
1382;SDS011;685;47.196;11.880;2022-12-18T04:59:19;2.38;;;1.50;;
1382;SDS011;685;47.196;11.880;2022-12-18T05:01:46;1.20;;;1.00;;
1382;SDS011;685;47.196;11.880;2022-12-18T05:04:12;1.10;;;0.77;;
1382;SDS011;685;47.196;11.880;2022-12-18T05:06:41;1.75;;;1.15;;
1382;SDS011;685;47.196;11.880;2022-12-18T05:09:07;1.10;;;0.90;;
1382;SDS011;685;47.196;11.880;2022-12-18T05:11:35;1.75;;;1.33;;
1382;SDS011;685;47.196;11.880;2022-12-18T05:14:02;1.10;;;0.82;;
1382;SDS011;685;47.196;11.880;2022-12-18T05:16:29;1.17;;;1.05;;
1382;SDS011;685;47.196;11.880;2022-12-18T05:18:56;0.80;;;0.70;;
1382;SDS011;685;47.196;11.880;2022-12-18T05:21:23;2.17;;;1.40;;
1382;SDS011;685;47.196;11.880;2022-12-18T05:23:51;1.00;;;0.90;;
1382;SDS011;685;47.196;11.880;2022-12-18T05:26:18;1.20;;;0.88;;
1382;SDS011;685;47.196;11.880;2022-12-18T05:28:45;2.00;;;1.60;;
1382;SDS011;685;47.196;11.880;2022-12-18T05:31:12;1.10;;;0.88;;
1382;SDS011;685;47.196;11.880;2022-12-18T05:33:39;2.60;;;1.40;;
1382;SDS011;685;47.196;11.880;2022-12-18T05:36:07;1.90;;;1.63;;
1382;SDS011;685;47.196;11.880;2022-12-18T05:38:36;3.42;;;2.22;;
1382;SDS011;685;47.196;11.880;2022-12-18T05:41:06;2.15;;;1.95;;
1382;SDS011;685;47.196;11.880;2022-12-18T05:43:34;2.60;;;1.88;;
1382;SDS011;685;47.196;11.880;2022-12-18T05:46:03;7.10;;;5.45;;
1382;SDS011;685;47.196;11.880;2022-12-18T05:48:30;4.60;;;3.28;;
1382;SDS011;685;47.196;11.880;2022-12-18T05:51:02;3.38;;;3.08;;
1382;SDS011;685;47.196;11.880;2022-12-18T05:53:30;2.60;;;2.10;;
1382;SDS011;685;47.196;11.880;2022-12-18T05:55:59;5.43;;;5.03;;
1382;SDS011;685;47.196;11.880;2022-12-18T05:58:28;10.90;;;9.80;;
1382;SDS011;685;47.196;11.880;2022-12-18T06:00:55;11.43;;;10.52;;
1382;SDS011;685;47.196;11.880;2022-12-18T06:03:22;4.68;;;3.70;;
1382;SDS011;685;47.196;11.880;2022-12-18T06:05:49;3.55;;;2.55;;
1382;SDS011;685;47.196;11.880;2022-12-18T06:08:16;2.55;;;2.35;;
1382;SDS011;685;47.196;11.880;2022-12-18T06:10:48;1.65;;;1.23;;
1382;SDS011;685;47.196;11.880;2022-12-18T06:13:17;3.70;;;2.25;;
1382;SDS011;685;47.196;11.880;2022-12-18T06:15:46;3.92;;;3.47;;
1382;SDS011;685;47.196;11.880;2022-12-18T06:18:13;2.83;;;2.63;;
1382;SDS011;685;47.196;11.880;2022-12-18T06:20:40;2.33;;;2.13;;
1382;SDS011;685;47.196;11.880;2022-12-18T06:23:07;1.88;;;1.75;;
1382;SDS011;685;47.196;11.880;2022-12-18T06:25:36;3.17;;;2.20;;
1382;SDS011;685;47.196;11.880;2022-12-18T06:28:05;3.53;;;1.88;;
1382;SDS011;685;47.196;11.880;2022-12-18T06:30:32;3.28;;;2.97;;
1382;SDS011;685;47.196;11.880;2022-12-18T06:33:00;3.38;;;2.95;;
1382;SDS011;685;47.196;11.880;2022-12-18T06:35:27;4.80;;;3.50;;
1382;SDS011;685;47.196;11.880;2022-12-18T06:37:53;3.63;;;3.28;;
1382;SDS011;685;47.196;11.880;2022-12-18T06:40:20;3.55;;;2.70;;
1382;SDS011;685;47.196;11.880;2022-12-18T06:42:47;2.60;;;2.40;;
1382;SDS011;685;47.196;11.880;2022-12-18T06:45:14;5.13;;;3.80;;
1382;SDS011;685;47.196;11.880;2022-12-18T06:47:41;4.10;;;2.05;;
1382;SDS011;685;47.196;11.880;2022-12-18T06:50:09;3.30;;;2.30;;
1382;SDS011;685;47.196;11.880;2022-12-18T06:52:36;3.10;;;2.30;;
1382;SDS011;685;47.196;11.880;2022-12-18T06:55:04;2.30;;;2.10;;
1382;SDS011;685;47.196;11.880;2022-12-18T06:57:32;3.75;;;3.35;;
1382;SDS011;685;47.196;11.880;2022-12-18T06:59:58;9.30;;;4.30;;
1382;SDS011;685;47.196;11.880;2022-12-18T07:02:25;4.75;;;2.70;;
1382;SDS011;685;47.196;11.880;2022-12-18T07:04:52;5.40;;;3.67;;
1382;SDS011;685;47.196;11.880;2022-12-18T07:07:21;2.60;;;2.00;;
1382;SDS011;685;47.196;11.880;2022-12-18T07:09:49;3.08;;;2.42;;
1382;SDS011;685;47.196;11.880;2022-12-18T07:12:16;4.20;;;2.70;;
1382;SDS011;685;47.196;11.880;2022-12-18T07:14:43;3.67;;;1.63;;
1382;SDS011;685;47.196;11.880;2022-12-18T07:17:10;1.92;;;1.73;;
1382;SDS011;685;47.196;11.880;2022-12-18T07:19:36;3.30;;;2.28;;
1382;SDS011;685;47.196;11.880;2022-12-18T07:22:03;3.42;;;2.42;;
1382;SDS011;685;47.196;11.880;2022-12-18T07:24:33;2.33;;;2.10;;
1382;SDS011;685;47.196;11.880;2022-12-18T07:27:00;2.13;;;1.98;;
1382;SDS011;685;47.196;11.880;2022-12-18T07:29:27;1.83;;;1.73;;
1382;SDS011;685;47.196;11.880;2022-12-18T07:31:53;2.67;;;2.45;;
1382;SDS011;685;47.196;11.880;2022-12-18T07:34:20;4.60;;;2.78;;
1382;SDS011;685;47.196;11.880;2022-12-18T07:36:47;4.22;;;2.72;;
1382;SDS011;685;47.196;11.880;2022-12-18T07:39:14;3.28;;;3.08;;
1382;SDS011;685;47.196;11.880;2022-12-18T07:41:42;3.78;;;3.38;;
1382;SDS011;685;47.196;11.880;2022-12-18T07:44:29;3.33;;;2.55;;
1382;SDS011;685;47.196;11.880;2022-12-18T07:46:56;2.63;;;2.15;;
1382;SDS011;685;47.196;11.880;2022-12-18T07:49:23;3.42;;;2.33;;
1382;SDS011;685;47.196;11.880;2022-12-18T07:51:50;3.92;;;2.50;;
1382;SDS011;685;47.196;11.880;2022-12-18T07:54:17;3.30;;;3.00;;
1382;SDS011;685;47.196;11.880;2022-12-18T07:56:45;4.88;;;3.42;;
1382;SDS011;685;47.196;11.880;2022-12-18T07:59:12;3.75;;;3.03;;
1382;SDS011;685;47.196;11.880;2022-12-18T08:01:39;3.50;;;2.78;;
1382;SDS011;685;47.196;11.880;2022-12-18T08:04:06;2.85;;;2.58;;
1382;SDS011;685;47.196;11.880;2022-12-18T08:06:32;2.67;;;2.28;;
1382;SDS011;685;47.196;11.880;2022-12-18T08:08:59;6.53;;;4.63;;
1382;SDS011;685;47.196;11.880;2022-12-18T08:11:27;6.97;;;4.97;;
1382;SDS011;685;47.196;11.880;2022-12-18T08:13:56;7.22;;;5.40;;
1382;SDS011;685;47.196;11.880;2022-12-18T08:16:23;4.22;;;3.10;;
1382;SDS011;685;47.196;11.880;2022-12-18T08:18:51;5.45;;;2.83;;
1382;SDS011;685;47.196;11.880;2022-12-18T08:21:19;2.53;;;2.33;;
1382;SDS011;685;47.196;11.880;2022-12-18T08:23:47;6.30;;;3.55;;
1382;SDS011;685;47.196;11.880;2022-12-18T08:26:15;7.78;;;2.28;;
1382;SDS011;685;47.196;11.880;2022-12-18T08:28:42;4.57;;;2.70;;
1382;SDS011;685;47.196;11.880;2022-12-18T08:31:11;3.22;;;2.60;;
1382;SDS011;685;47.196;11.880;2022-12-18T08:33:38;2.75;;;2.45;;
1382;SDS011;685;47.196;11.880;2022-12-18T08:36:05;2.83;;;2.33;;
1382;SDS011;685;47.196;11.880;2022-12-18T08:38:33;5.28;;;4.00;;
1382;SDS011;685;47.196;11.880;2022-12-18T08:41:00;4.90;;;3.58;;
1382;SDS011;685;47.196;11.880;2022-12-18T08:43:27;8.55;;;4.38;;
1382;SDS011;685;47.196;11.880;2022-12-18T08:46:13;11.77;;;6.20;;
1382;SDS011;685;47.196;11.880;2022-12-18T08:48:40;5.65;;;4.75;;
1382;SDS011;685;47.196;11.880;2022-12-18T08:51:07;6.97;;;5.18;;
1382;SDS011;685;47.196;11.880;2022-12-18T08:53:34;13.25;;;8.80;;
1382;SDS011;685;47.196;11.880;2022-12-18T08:56:01;15.35;;;9.00;;
1382;SDS011;685;47.196;11.880;2022-12-18T08:58:28;15.93;;;8.85;;
1382;SDS011;685;47.196;11.880;2022-12-18T09:00:59;18.33;;;7.00;;
1382;SDS011;685;47.196;11.880;2022-12-18T09:03:28;18.90;;;9.85;;
1382;SDS011;685;47.196;11.880;2022-12-18T09:05:55;17.83;;;9.68;;
1382;SDS011;685;47.196;11.880;2022-12-18T09:08:22;20.33;;;9.93;;
1382;SDS011;685;47.196;11.880;2022-12-18T09:10:49;9.45;;;8.25;;
1382;SDS011;685;47.196;11.880;2022-12-18T09:13:16;8.27;;;7.05;;
1382;SDS011;685;47.196;11.880;2022-12-18T09:15:44;9.27;;;7.18;;
1382;SDS011;685;47.196;11.880;2022-12-18T09:18:12;14.57;;;8.90;;
1382;SDS011;685;47.196;11.880;2022-12-18T09:20:42;10.68;;;7.25;;
1382;SDS011;685;47.196;11.880;2022-12-18T09:23:10;8.80;;;6.45;;
1382;SDS011;685;47.196;11.880;2022-12-18T09:25:37;7.13;;;5.68;;
1382;SDS011;685;47.196;11.880;2022-12-18T09:28:05;6.93;;;6.22;;
1382;SDS011;685;47.196;11.880;2022-12-18T09:30:36;8.50;;;7.70;;
1382;SDS011;685;47.196;11.880;2022-12-18T09:33:03;9.20;;;7.30;;
1382;SDS011;685;47.196;11.880;2022-12-18T09:35:30;7.70;;;6.20;;
1382;SDS011;685;47.196;11.880;2022-12-18T09:37:58;8.00;;;5.60;;
1382;SDS011;685;47.196;11.880;2022-12-18T09:40:34;3.85;;;3.33;;
1382;SDS011;685;47.196;11.880;2022-12-18T09:43:06;5.57;;;4.13;;
1382;SDS011;685;47.196;11.880;2022-12-18T09:45:38;4.10;;;3.70;;
1382;SDS011;685;47.196;11.880;2022-12-18T09:48:09;7.45;;;5.15;;
1382;SDS011;685;47.196;11.880;2022-12-18T09:50:42;10.98;;;5.90;;
1382;SDS011;685;47.196;11.880;2022-12-18T09:53:12;10.38;;;7.43;;
1382;SDS011;685;47.196;11.880;2022-12-18T09:55:44;8.68;;;5.65;;
1382;SDS011;685;47.196;11.880;2022-12-18T09:58:13;6.97;;;5.53;;
1382;SDS011;685;47.196;11.880;2022-12-18T10:00:45;8.85;;;4.95;;
1382;SDS011;685;47.196;11.880;2022-12-18T10:03:12;7.05;;;5.60;;
1382;SDS011;685;47.196;11.880;2022-12-18T10:05:41;8.27;;;7.47;;
1382;SDS011;685;47.196;11.880;2022-12-18T10:08:17;9.98;;;8.45;;
1382;SDS011;685;47.196;11.880;2022-12-18T10:10:48;12.13;;;8.52;;
1382;SDS011;685;47.196;11.880;2022-12-18T10:13:22;9.23;;;7.45;;
1382;SDS011;685;47.196;11.880;2022-12-18T10:18:46;8.20;;;6.35;;
1382;SDS011;685;47.196;11.880;2022-12-18T10:21:30;5.80;;;4.80;;
1382;SDS011;685;47.196;11.880;2022-12-18T10:24:10;4.55;;;2.58;;
1382;SDS011;685;47.196;11.880;2022-12-18T10:26:51;4.57;;;2.80;;
1382;SDS011;685;47.196;11.880;2022-12-18T10:29:21;6.10;;;4.43;;
1382;SDS011;685;47.196;11.880;2022-12-18T10:31:50;5.90;;;4.97;;
1382;SDS011;685;47.196;11.880;2022-12-18T10:34:17;10.40;;;5.47;;
1382;SDS011;685;47.196;11.880;2022-12-18T10:36:44;6.28;;;5.60;;
1382;SDS011;685;47.196;11.880;2022-12-18T10:39:15;13.37;;;9.17;;
1382;SDS011;685;47.196;11.880;2022-12-18T10:41:43;12.93;;;8.67;;
1382;SDS011;685;47.196;11.880;2022-12-18T10:44:11;8.53;;;7.60;;
1382;SDS011;685;47.196;11.880;2022-12-18T10:46:43;7.30;;;5.80;;
1382;SDS011;685;47.196;11.880;2022-12-18T10:49:24;8.33;;;6.53;;
1382;SDS011;685;47.196;11.880;2022-12-18T10:52:03;5.67;;;4.63;;
1382;SDS011;685;47.196;11.880;2022-12-18T10:54:33;3.78;;;3.30;;
1382;SDS011;685;47.196;11.880;2022-12-18T10:57:13;6.97;;;3.73;;
1382;SDS011;685;47.196;11.880;2022-12-18T10:59:49;6.37;;;4.23;;
1382;SDS011;685;47.196;11.880;2022-12-18T11:02:24;4.30;;;3.10;;
1382;SDS011;685;47.196;11.880;2022-12-18T11:04:54;4.47;;;4.07;;
1382;SDS011;685;47.196;11.880;2022-12-18T11:07:21;11.80;;;8.10;;
1382;SDS011;685;47.196;11.880;2022-12-18T11:09:59;8.67;;;7.10;;
1382;SDS011;685;47.196;11.880;2022-12-18T11:12:27;7.30;;;6.33;;
1382;SDS011;685;47.196;11.880;2022-12-18T11:14:55;6.00;;;5.20;;
1382;SDS011;685;47.196;11.880;2022-12-18T11:17:25;7.23;;;4.90;;
1382;SDS011;685;47.196;11.880;2022-12-18T11:19:55;5.40;;;3.80;;
1382;SDS011;685;47.196;11.880;2022-12-18T11:22:24;2.07;;;1.87;;
1382;SDS011;685;47.196;11.880;2022-12-18T11:24:54;4.03;;;3.27;;
1382;SDS011;685;47.196;11.880;2022-12-18T11:27:24;5.90;;;5.00;;
1382;SDS011;685;47.196;11.880;2022-12-18T11:29:52;6.40;;;5.40;;
1382;SDS011;685;47.196;11.880;2022-12-18T11:32:21;9.67;;;6.07;;
1382;SDS011;685;47.196;11.880;2022-12-18T11:34:55;12.67;;;10.40;;
1382;SDS011;685;47.196;11.880;2022-12-18T11:37:27;8.60;;;7.70;;
1382;SDS011;685;47.196;11.880;2022-12-18T11:39:57;6.33;;;5.73;;
1382;SDS011;685;47.196;11.880;2022-12-18T11:42:27;6.53;;;5.87;;
1382;SDS011;685;47.196;11.880;2022-12-18T11:45:02;6.97;;;5.73;;
1382;SDS011;685;47.196;11.880;2022-12-18T11:47:36;6.73;;;5.80;;
1382;SDS011;685;47.196;11.880;2022-12-18T11:50:16;5.80;;;5.30;;
1382;SDS011;685;47.196;11.880;2022-12-18T11:52:45;6.97;;;5.87;;
1382;SDS011;685;47.196;11.880;2022-12-18T11:55:14;6.50;;;5.87;;
1382;SDS011;685;47.196;11.880;2022-12-18T11:57:45;5.63;;;5.07;;
1382;SDS011;685;47.196;11.880;2022-12-18T12:00:21;6.33;;;5.73;;
1382;SDS011;685;47.196;11.880;2022-12-18T12:03:05;7.40;;;5.97;;
1382;SDS011;685;47.196;11.880;2022-12-18T12:05:56;6.93;;;6.23;;
1382;SDS011;685;47.196;11.880;2022-12-18T12:08:37;9.03;;;6.53;;
1382;SDS011;685;47.196;11.880;2022-12-18T12:11:11;8.37;;;7.57;;
1382;SDS011;685;47.196;11.880;2022-12-18T12:13:45;8.37;;;7.53;;
1382;SDS011;685;47.196;11.880;2022-12-18T12:16:29;6.03;;;5.43;;
1382;SDS011;685;47.196;11.880;2022-12-18T12:19:06;5.77;;;5.17;;
1382;SDS011;685;47.196;11.880;2022-12-18T12:21:46;5.50;;;4.63;;
1382;SDS011;685;47.196;11.880;2022-12-18T12:24:24;5.47;;;4.90;;
1382;SDS011;685;47.196;11.880;2022-12-18T12:27:03;5.70;;;4.90;;
1382;SDS011;685;47.196;11.880;2022-12-18T12:29:41;7.40;;;5.40;;
1382;SDS011;685;47.196;11.880;2022-12-18T12:32:20;7.77;;;6.37;;
1382;SDS011;685;47.196;11.880;2022-12-18T12:35:02;7.77;;;5.73;;
1382;SDS011;685;47.196;11.880;2022-12-18T12:37:41;6.50;;;4.90;;
1382;SDS011;685;47.196;11.880;2022-12-18T12:40:17;5.90;;;4.70;;
1382;SDS011;685;47.196;11.880;2022-12-18T12:42:47;4.93;;;4.00;;
1382;SDS011;685;47.196;11.880;2022-12-18T12:45:40;5.07;;;4.30;;
1382;SDS011;685;47.196;11.880;2022-12-18T12:48:13;5.13;;;4.00;;
1382;SDS011;685;47.196;11.880;2022-12-18T12:50:46;7.37;;;5.20;;
1382;SDS011;685;47.196;11.880;2022-12-18T12:53:19;6.83;;;5.20;;
1382;SDS011;685;47.196;11.880;2022-12-18T12:55:51;7.30;;;5.70;;
1382;SDS011;685;47.196;11.880;2022-12-18T12:58:23;7.30;;;6.17;;
1382;SDS011;685;47.196;11.880;2022-12-18T13:01:00;7.47;;;5.90;;
1382;SDS011;685;47.196;11.880;2022-12-18T13:03:43;7.43;;;5.80;;
1382;SDS011;685;47.196;11.880;2022-12-18T13:06:19;6.27;;;5.60;;
1382;SDS011;685;47.196;11.880;2022-12-18T13:08:59;10.30;;;5.27;;
1382;SDS011;685;47.196;11.880;2022-12-18T13:14:32;9.37;;;6.60;;
1382;SDS011;685;47.196;11.880;2022-12-18T13:20:02;7.37;;;6.67;;
1382;SDS011;685;47.196;11.880;2022-12-18T13:22:35;7.47;;;6.10;;
1382;SDS011;685;47.196;11.880;2022-12-18T13:30:43;8.90;;;5.87;;
1382;SDS011;685;47.196;11.880;2022-12-18T13:36:13;9.13;;;5.30;;
1382;SDS011;685;47.196;11.880;2022-12-18T13:38:43;7.90;;;5.07;;
1382;SDS011;685;47.196;11.880;2022-12-18T13:41:23;6.40;;;4.90;;
1382;SDS011;685;47.196;11.880;2022-12-18T13:43:53;5.67;;;4.53;;
1382;SDS011;685;47.196;11.880;2022-12-18T13:46:25;6.70;;;4.67;;
1382;SDS011;685;47.196;11.880;2022-12-18T13:48:55;7.30;;;5.13;;
1382;SDS011;685;47.196;11.880;2022-12-18T13:51:24;5.80;;;4.57;;
1382;SDS011;685;47.196;11.880;2022-12-18T13:53:53;5.13;;;4.33;;
1382;SDS011;685;47.196;11.880;2022-12-18T13:56:22;6.47;;;5.13;;
1382;SDS011;685;47.196;11.880;2022-12-18T13:59:05;7.10;;;6.30;;
1382;SDS011;685;47.196;11.880;2022-12-18T14:01:43;7.10;;;4.67;;
1382;SDS011;685;47.196;11.880;2022-12-18T14:04:12;6.20;;;4.60;;
1382;SDS011;685;47.196;11.880;2022-12-18T14:06:45;5.00;;;4.20;;
1382;SDS011;685;47.196;11.880;2022-12-18T14:09:13;9.70;;;6.33;;
1382;SDS011;685;47.196;11.880;2022-12-18T14:11:45;4.90;;;4.37;;
1382;SDS011;685;47.196;11.880;2022-12-18T14:14:13;4.87;;;4.30;;
1382;SDS011;685;47.196;11.880;2022-12-18T14:16:43;5.93;;;4.77;;
1382;SDS011;685;47.196;11.880;2022-12-18T14:19:12;9.53;;;6.90;;
1382;SDS011;685;47.196;11.880;2022-12-18T14:21:45;11.50;;;8.93;;
1382;SDS011;685;47.196;11.880;2022-12-18T14:24:14;15.47;;;10.60;;
1382;SDS011;685;47.196;11.880;2022-12-18T14:26:42;10.47;;;8.53;;
1382;SDS011;685;47.196;11.880;2022-12-18T14:29:20;8.37;;;7.00;;
1382;SDS011;685;47.196;11.880;2022-12-18T14:32:06;7.00;;;6.07;;
1382;SDS011;685;47.196;11.880;2022-12-18T14:34:35;9.60;;;7.20;;
1382;SDS011;685;47.196;11.880;2022-12-18T14:37:02;7.57;;;6.50;;
1382;SDS011;685;47.196;11.880;2022-12-18T14:39:29;8.43;;;6.90;;
1382;SDS011;685;47.196;11.880;2022-12-18T14:41:56;7.17;;;6.47;;
1382;SDS011;685;47.196;11.880;2022-12-18T14:44:23;7.93;;;6.03;;
1382;SDS011;685;47.196;11.880;2022-12-18T14:46:50;7.60;;;5.40;;
1382;SDS011;685;47.196;11.880;2022-12-18T14:49:20;7.50;;;3.93;;
1382;SDS011;685;47.196;11.880;2022-12-18T14:51:51;7.70;;;4.27;;
1382;SDS011;685;47.196;11.880;2022-12-18T14:54:19;6.30;;;3.80;;
1382;SDS011;685;47.196;11.880;2022-12-18T14:56:48;4.97;;;3.70;;
1382;SDS011;685;47.196;11.880;2022-12-18T14:59:17;4.07;;;3.67;;
1382;SDS011;685;47.196;11.880;2022-12-18T15:01:56;4.97;;;3.90;;
1382;SDS011;685;47.196;11.880;2022-12-18T15:04:28;5.63;;;3.53;;
1382;SDS011;685;47.196;11.880;2022-12-18T15:07:07;4.63;;;3.57;;
1382;SDS011;685;47.196;11.880;2022-12-18T15:09:38;5.10;;;4.03;;
1382;SDS011;685;47.196;11.880;2022-12-18T15:12:15;4.93;;;4.47;;
1382;SDS011;685;47.196;11.880;2022-12-18T15:14:50;7.73;;;5.43;;
1382;SDS011;685;47.196;11.880;2022-12-18T15:17:18;5.67;;;5.10;;
1382;SDS011;685;47.196;11.880;2022-12-18T15:19:48;7.23;;;5.03;;
1382;SDS011;685;47.196;11.880;2022-12-18T15:22:21;5.43;;;4.93;;
1382;SDS011;685;47.196;11.880;2022-12-18T15:24:51;5.80;;;4.80;;
1382;SDS011;685;47.196;11.880;2022-12-18T15:27:20;5.83;;;4.27;;
1382;SDS011;685;47.196;11.880;2022-12-18T15:29:59;4.63;;;4.00;;
1382;SDS011;685;47.196;11.880;2022-12-18T15:33:16;4.10;;;3.57;;
1382;SDS011;685;47.196;11.880;2022-12-18T15:35:56;5.07;;;4.17;;
1382;SDS011;685;47.196;11.880;2022-12-18T15:38:23;4.47;;;3.10;;
1382;SDS011;685;47.196;11.880;2022-12-18T15:40:50;2.93;;;2.50;;
1382;SDS011;685;47.196;11.880;2022-12-18T15:43:18;3.50;;;2.70;;
1382;SDS011;685;47.196;11.880;2022-12-18T15:45:59;2.60;;;2.40;;
1382;SDS011;685;47.196;11.880;2022-12-18T15:48:27;2.67;;;2.47;;
1382;SDS011;685;47.196;11.880;2022-12-18T15:50:54;5.03;;;3.00;;
1382;SDS011;685;47.196;11.880;2022-12-18T15:53:24;3.40;;;2.30;;